createdAt,value
2022-10-05T00:00:46.542Z,100637.19
2022-10-05T00:03:14.423Z,100621.34
2022-10-05T00:05:42.601Z,100617.91
2022-10-05T00:08:15.716Z,100623.38
2022-10-05T00:10:44.846Z,100615.50
2022-10-05T00:13:14.703Z,100579.34
2022-10-05T00:15:44.623Z,100595.44
2022-10-05T00:18:16.980Z,100577.88
2022-10-05T00:20:46.426Z,100591.91
2022-10-05T00:23:20.416Z,100582.97
2022-10-05T00:25:48.898Z,100591.88
2022-10-05T00:28:26.908Z,100590.03
2022-10-05T00:30:59.526Z,100580.22
2022-10-05T00:33:28.753Z,100597.00
2022-10-05T00:35:56.850Z,100596.13
2022-10-05T00:38:24.870Z,100603.09
2022-10-05T00:41:05.842Z,100578.53
2022-10-05T00:43:57.866Z,100581.13
2022-10-05T00:46:29.657Z,100545.84
2022-10-05T00:49:11.166Z,100575.84
2022-10-05T00:51:40.081Z,100594.19
2022-10-05T00:54:21.461Z,100575.75
2022-10-05T00:57:13.736Z,100585.38
2022-10-05T00:59:56.841Z,100575.75
2022-10-05T01:02:36.556Z,100551.94
2022-10-05T01:05:11.341Z,100548.56
2022-10-05T01:07:47.195Z,100516.16
2022-10-05T01:10:24.084Z,100510.03
2022-10-05T01:13:01.334Z,100517.06
2022-10-05T01:15:34.196Z,100518.84
2022-10-05T01:18:12.768Z,100503.94
2022-10-05T01:20:50.543Z,100513.53
2022-10-05T01:23:34.839Z,100501.25
2022-10-05T01:26:18.572Z,100502.09
2022-10-05T01:28:52.890Z,100509.94
2022-10-05T01:31:27.425Z,100460.47
2022-10-05T01:34:04.254Z,100507.41
2022-10-05T01:36:45.478Z,100507.38
2022-10-05T01:39:22.494Z,100518.00
2022-10-05T01:42:00.233Z,100500.50
2022-10-05T01:44:34.507Z,100498.81
2022-10-05T01:47:08.930Z,100469.56
2022-10-05T01:49:39.847Z,100504.97
2022-10-05T01:52:23.847Z,100489.06
2022-10-05T01:55:03.088Z,100502.41
2022-10-05T01:57:42.930Z,100474.25
2022-10-05T02:00:14.518Z,100484.94
2022-10-05T02:02:47.253Z,100470.91
2022-10-05T02:05:21.029Z,100421.31
2022-10-05T02:07:53.053Z,100473.56
2022-10-05T02:10:27.261Z,100478.84
2022-10-05T02:12:59.930Z,100465.66
2022-10-05T02:15:35.207Z,100471.88
2022-10-05T02:18:09.381Z,100448.16
2022-10-05T02:20:40.202Z,100466.66
2022-10-05T02:23:13.674Z,100465.81
2022-10-05T02:25:46.842Z,100460.56
2022-10-05T02:28:20.554Z,100453.59
2022-10-05T02:30:54.570Z,100438.66
2022-10-05T02:33:28.781Z,100451.00
2022-10-05T02:36:02.030Z,100444.88
2022-10-05T02:38:42.333Z,100451.03
2022-10-05T02:41:21.676Z,100429.03
2022-10-05T02:43:58.493Z,100442.28
2022-10-05T02:46:35.687Z,100384.88
2022-10-05T02:49:15.408Z,100431.69
2022-10-05T02:51:52.538Z,100439.66
2022-10-05T02:54:34.592Z,100444.94
2022-10-05T02:57:10.104Z,100436.16
2022-10-05T02:59:41.405Z,100436.97
2022-10-05T03:02:16.965Z,100435.38
2022-10-05T03:04:56.264Z,100434.50
2022-10-05T03:07:28.465Z,100419.44
2022-10-05T03:10:02.063Z,100423.94
2022-10-05T03:12:43.922Z,100419.66
2022-10-05T03:15:24.913Z,100401.19
2022-10-05T03:18:05.733Z,100408.28
2022-10-05T03:20:43.155Z,100401.25
2022-10-05T03:23:19.399Z,100406.56
2022-10-05T03:26:00.795Z,100413.56
2022-10-05T03:28:33.922Z,100406.59
2022-10-05T03:31:05.213Z,100404.84
2022-10-05T03:33:45.383Z,100398.72
2022-10-05T03:36:19.495Z,100396.06
2022-10-05T03:38:54.426Z,100362.56
2022-10-05T03:41:30.529Z,100369.69
2022-10-05T03:44:21.166Z,100390.84
2022-10-05T03:47:05.278Z,100377.72
2022-10-05T03:49:44.137Z,100382.94
2022-10-05T03:52:16.704Z,100378.50
2022-10-05T03:54:49.083Z,100369.78
2022-10-05T03:57:20.468Z,100343.34
2022-10-05T03:59:57.845Z,100357.44
2022-10-05T04:02:29.696Z,100319.47
2022-10-05T04:05:04.446Z,100368.97
2022-10-05T04:07:42.793Z,100352.31
2022-10-05T04:10:18.581Z,100342.66
2022-10-05T04:12:51.261Z,100280.03
2022-10-05T04:15:31.135Z,100347.97
2022-10-05T04:18:04.413Z,100343.56
2022-10-05T04:20:39.602Z,100332.19
2022-10-05T04:23:18.928Z,100345.34
2022-10-05T04:25:51.904Z,100334.78
2022-10-05T04:28:32.238Z,100307.47
2022-10-05T04:31:04.947Z,100302.22
2022-10-05T04:33:33.729Z,100295.13
2022-10-05T04:36:13.889Z,100232.47
2022-10-05T04:38:52.837Z,100208.72
2022-10-05T04:41:37.313Z,100206.09
2022-10-05T04:44:19.950Z,100311.16
2022-10-05T04:47:06.616Z,100308.56
2022-10-05T04:49:49.913Z,100314.72
2022-10-05T04:52:26.109Z,100313.84
2022-10-05T04:55:04.849Z,100322.63
2022-10-05T04:57:41.694Z,100313.88
2022-10-05T05:00:24.395Z,100320.88
2022-10-05T05:03:20.585Z,100306.00
2022-10-05T05:06:16.254Z,100309.53
2022-10-05T05:09:10.642Z,100299.91
2022-10-05T05:11:47.417Z,100298.09
2022-10-05T05:14:32.570Z,100290.19
2022-10-05T05:17:15.570Z,100266.31
2022-10-05T05:19:52.678Z,100317.53
2022-10-05T05:22:30.371Z,100304.38
2022-10-05T05:25:20.518Z,100288.53
2022-10-05T05:27:53.388Z,100291.25
2022-10-05T05:30:24.509Z,100292.13
2022-10-05T05:33:07.833Z,100283.38
2022-10-05T05:36:04.004Z,100285.13
2022-10-05T05:38:36.540Z,100268.41
2022-10-05T05:41:11.540Z,100285.16
2022-10-05T05:43:54.188Z,100279.03
2022-10-05T05:46:51.171Z,100285.16
2022-10-05T05:49:19.256Z,100282.53
2022-10-05T05:51:51.829Z,100275.53
2022-10-05T05:54:28.246Z,100236.75
2022-10-05T05:57:09.272Z,100272.00
2022-10-05T05:59:48.548Z,100283.44
2022-10-05T06:02:21.215Z,100277.25
2022-10-05T06:04:53.553Z,100290.47
2022-10-05T06:07:30.604Z,100296.63
2022-10-05T06:10:06.929Z,100304.53
2022-10-05T06:12:42.669Z,100290.50
2022-10-05T06:15:31.662Z,100302.78
2022-10-05T06:18:04.589Z,100310.69
2022-10-05T06:20:39.436Z,100315.09
2022-10-05T06:23:13.688Z,100293.13
2022-10-05T06:25:58.787Z,100299.31
2022-10-05T06:28:31.058Z,100317.81
2022-10-05T06:31:06.017Z,100298.50
2022-10-05T06:33:46.976Z,100303.78
2022-10-05T06:36:24.906Z,100181.22
2022-10-05T06:39:29.089Z,100299.44
2022-10-05T06:42:13.723Z,100286.28
2022-10-05T06:44:53.582Z,100287.16
2022-10-05T06:47:29.717Z,100276.56
2022-10-05T06:50:09.967Z,100287.16
2022-10-05T06:52:46.269Z,100288.91
2022-10-05T06:55:23.344Z,100292.50
2022-10-05T06:58:02.866Z,100282.84
2022-10-05T07:00:39.917Z,100277.59
2022-10-05T07:03:22.012Z,100274.97
2022-10-05T07:06:07.555Z,100271.41
2022-10-05T07:08:49.080Z,100290.78
2022-10-05T07:11:31.954Z,100292.53
2022-10-05T07:14:20.870Z,100282.84
2022-10-05T07:17:04.825Z,100289.91
2022-10-05T07:19:39.967Z,100274.06
2022-10-05T07:22:29.391Z,100289.06
2022-10-05T07:25:08.516Z,100282.06
2022-10-05T07:27:42.101Z,100281.19
2022-10-05T07:30:13.909Z,100293.50
2022-10-05T07:32:50.321Z,100289.09
2022-10-05T07:35:42.875Z,100299.69
2022-10-05T07:38:19.711Z,100298.84
2022-10-05T07:40:53.761Z,100299.75
2022-10-05T07:43:57.611Z,100289.19
2022-10-05T07:46:28.287Z,100305.94
2022-10-05T07:49:03.981Z,100301.50
2022-10-05T07:51:37.655Z,100304.16
2022-10-05T07:54:17.093Z,100299.78
2022-10-05T07:56:50.330Z,100298.03
2022-10-05T07:59:30.908Z,100286.63
2022-10-05T08:02:08.758Z,100284.00
2022-10-05T08:04:45.949Z,100278.75
2022-10-05T08:07:17.070Z,100284.94
2022-10-05T08:09:50.477Z,100271.72
2022-10-05T08:12:26.207Z,100277.03
2022-10-05T08:14:58.195Z,100284.97
2022-10-05T08:17:40.075Z,100281.47
2022-10-05T08:20:24.327Z,100282.38
2022-10-05T08:22:58.905Z,100277.09
2022-10-05T08:25:31.384Z,100294.72
2022-10-05T08:28:09.544Z,100245.44
2022-10-05T08:30:58.158Z,100284.22
2022-10-05T08:33:28.157Z,100280.69
2022-10-05T08:36:06.680Z,100281.59
2022-10-05T08:38:35.631Z,100264.88
2022-10-05T08:41:47.674Z,100279.88
2022-10-05T08:44:54.829Z,100268.47
2022-10-05T08:47:49.758Z,100227.06
2022-10-05T08:50:35.152Z,100274.63
2022-10-05T08:53:41.910Z,100273.78
2022-10-05T08:56:31.043Z,100276.41
2022-10-05T08:59:48.068Z,100275.53
2022-10-05T09:02:27.080Z,100268.47
2022-10-05T09:05:11.759Z,100287.84
2022-10-05T09:08:14.043Z,100286.97
2022-10-05T09:11:04.272Z,100287.84
2022-10-05T09:13:58.681Z,100285.25
2022-10-05T09:16:49.140Z,100286.16
2022-10-05T09:19:40.461Z,100292.31
2022-10-05T09:22:16.329Z,100272.97
2022-10-05T09:24:56.278Z,100265.06
2022-10-05T09:27:40.029Z,100254.44
2022-10-05T09:30:19.374Z,100290.63
2022-10-05T09:33:25.813Z,100290.63
2022-10-05T09:36:30.272Z,100291.50
2022-10-05T09:39:29.749Z,100293.28
2022-10-05T09:42:48.402Z,100285.38
2022-10-05T09:45:47.525Z,100299.44
2022-10-05T09:48:51.543Z,100307.38
2022-10-05T09:51:51.287Z,100305.63
2022-10-05T09:55:01.514Z,100302.13
2022-10-05T09:58:12.472Z,100292.44
2022-10-05T10:01:29.213Z,100282.75
2022-10-05T10:04:24.842Z,100273.97
2022-10-05T10:07:13.376Z,100284.53
2022-10-05T10:10:00.573Z,100270.44
2022-10-05T10:12:38.263Z,100303.03
2022-10-05T10:15:34.971Z,100291.59
2022-10-05T10:18:21.597Z,100297.75
2022-10-05T10:21:08.698Z,100293.34
2022-10-05T10:24:00.241Z,100281.03
2022-10-05T10:27:17.706Z,100291.59
2022-10-05T10:30:19.517Z,100288.94
2022-10-05T10:33:29.642Z,100289.81
2022-10-05T10:36:07.144Z,100293.31
2022-10-05T10:38:42.874Z,100288.91
2022-10-05T10:41:52.370Z,100291.56
2022-10-05T10:44:52.988Z,100287.16
2022-10-05T10:47:39.409Z,100282.75
2022-10-05T10:50:41.217Z,100281.88
2022-10-05T10:53:23.672Z,100282.75
2022-10-05T10:56:08.833Z,100277.47
2022-10-05T10:59:09.542Z,100289.81
2022-10-05T11:01:48.058Z,100296.88
2022-10-05T11:05:00.009Z,100301.28
2022-10-05T11:07:54.161Z,100295.09
2022-10-05T11:10:49.446Z,100281.91
2022-10-05T11:13:37.939Z,100282.78
2022-10-05T11:16:37.911Z,100287.19
2022-10-05T11:19:40.809Z,100293.34
2022-10-05T11:22:42.214Z,100287.16
2022-10-05T11:25:46.292Z,100291.59
2022-10-05T11:28:51.426Z,100251.94
2022-10-05T11:31:39.140Z,100268.66
2022-10-05T11:34:31.464Z,100280.09
2022-10-05T11:37:53.776Z,100281.84
2022-10-05T11:41:11.969Z,100258.09
2022-10-05T11:44:07.138Z,100268.66
2022-10-05T11:46:42.453Z,100283.59
2022-10-05T11:49:23.507Z,100291.53
2022-10-05T11:52:06.653Z,100294.16
2022-10-05T11:55:10.996Z,100279.16
2022-10-05T11:57:47.605Z,100282.69
2022-10-05T12:00:19.487Z,100273.88
2022-10-05T12:03:25.875Z,100272.97
2022-10-05T12:06:05.444Z,100267.66
2022-10-05T12:08:42.086Z,100272.06
2022-10-05T12:11:27.734Z,100277.38
2022-10-05T12:14:01.797Z,100161.28
2022-10-05T12:16:35.402Z,100280.03
2022-10-05T12:19:13.529Z,100272.06
2022-10-05T12:21:48.353Z,100274.69
2022-10-05T12:24:26.703Z,100272.06
2022-10-05T12:27:01.024Z,100274.69
2022-10-05T12:29:37.005Z,100274.66
2022-10-05T12:32:12.991Z,100264.09
2022-10-05T12:34:50.194Z,100264.97
2022-10-05T12:37:39.719Z,100244.72
2022-10-05T12:40:18.791Z,100219.28
2022-10-05T12:42:55.190Z,100203.44
2022-10-05T12:45:38.423Z,100266.78
2022-10-05T12:48:22.664Z,100230.72
2022-10-05T12:50:52.181Z,100210.50
2022-10-05T12:53:38.034Z,100249.19
2022-10-05T12:56:12.496Z,100271.22
2022-10-05T12:58:52.457Z,100259.75
2022-10-05T13:01:32.302Z,100258.88
2022-10-05T13:04:10.669Z,100254.47
2022-10-05T13:06:44.617Z,100241.25
2022-10-05T13:09:19.766Z,100252.72
2022-10-05T13:11:51.147Z,100248.31
2022-10-05T13:14:39.014Z,100246.56
2022-10-05T13:17:17.116Z,100237.78
2022-10-05T13:19:47.745Z,100244.84
2022-10-05T13:22:32.991Z,100241.34
2022-10-05T13:25:19.721Z,100241.41
2022-10-05T13:27:53.838Z,100236.97
2022-10-05T13:30:23.008Z,100232.56
2022-10-05T13:32:58.696Z,100235.22
2022-10-05T13:35:41.368Z,100248.44
2022-10-05T13:38:22.006Z,100241.41
2022-10-05T13:41:01.403Z,100243.16
2022-10-05T13:43:40.242Z,100230.81
2022-10-05T13:46:15.609Z,100234.34
2022-10-05T13:48:56.819Z,100248.44
2022-10-05T13:51:29.462Z,100236.13
2022-10-05T13:54:05.057Z,100229.06
2022-10-05T13:56:38.740Z,100210.59
2022-10-05T13:59:17.206Z,100222.03
2022-10-05T14:01:52.232Z,100229.06
2022-10-05T14:04:25.731Z,100223.78
2022-10-05T14:06:53.767Z,100216.72
2022-10-05T14:09:30.409Z,100215.84
2022-10-05T14:12:15.871Z,100216.72
2022-10-05T14:14:47.463Z,100207.91
2022-10-05T14:17:17.741Z,100199.97
2022-10-05T14:19:51.247Z,100201.72
2022-10-05T14:22:23.353Z,100202.59
2022-10-05T14:24:55.974Z,100193.81
2022-10-05T14:27:26.888Z,100198.22
2022-10-05T14:29:59.918Z,100203.53
2022-10-05T14:32:32.090Z,100201.72
2022-10-05T14:35:16.456Z,100098.81
2022-10-05T14:37:50.321Z,100201.69
2022-10-05T14:40:36.331Z,100186.75
2022-10-05T14:43:21.587Z,100194.66
2022-10-05T14:45:58.039Z,100176.22
2022-10-05T14:48:28.442Z,100191.13
2022-10-05T14:51:03.565Z,100186.72
2022-10-05T14:53:40.607Z,100178.78
2022-10-05T14:56:29.978Z,100170.84
2022-10-05T14:59:27.770Z,100157.63
2022-10-05T15:02:00.367Z,100154.06
2022-10-05T15:04:43.045Z,100111.84
2022-10-05T15:07:26.329Z,100135.53
2022-10-05T15:10:07.792Z,100139.91
2022-10-05T15:12:42.910Z,100114.41
2022-10-05T15:15:27.060Z,100136.34
2022-10-05T15:17:59.610Z,100134.56
2022-10-05T15:20:36.266Z,100144.25
2022-10-05T15:23:25.050Z,100145.16
2022-10-05T15:26:02.615Z,100144.28
2022-10-05T15:28:42.484Z,100131.06
2022-10-05T15:31:24.847Z,100138.09
2022-10-05T15:34:01.846Z,100131.06
2022-10-05T15:36:37.322Z,100129.28
2022-10-05T15:39:18.543Z,100049.34
2022-10-05T15:42:00.379Z,100131.94
2022-10-05T15:44:47.065Z,100127.59
2022-10-05T15:47:23.404Z,100123.16
2022-10-05T15:50:03.334Z,100105.59
2022-10-05T15:52:38.947Z,100124.06
2022-10-05T15:55:24.499Z,100027.44
2022-10-05T15:58:01.425Z,100127.59
2022-10-05T16:00:31.432Z,100124.09
2022-10-05T16:03:11.297Z,100117.03
2022-10-05T16:06:04.304Z,100110.88
2022-10-05T16:09:01.700Z,100105.59
2022-10-05T16:11:47.181Z,100064.31
2022-10-05T16:14:30.290Z,100091.56
2022-10-05T16:17:12.890Z,100110.91
2022-10-05T16:19:48.272Z,100123.25
2022-10-05T16:22:25.006Z,100112.69
2022-10-05T16:25:08.497Z,100114.47
2022-10-05T16:28:05.344Z,100117.97
2022-10-05T16:30:44.128Z,100085.50
2022-10-05T16:33:19.238Z,100077.56
2022-10-05T16:35:55.825Z,100106.56
2022-10-05T16:38:33.885Z,100101.28
2022-10-05T16:41:12.760Z,100082.84
2022-10-05T16:43:51.046Z,100102.22
2022-10-05T16:46:28.353Z,100103.09
2022-10-05T16:49:04.875Z,100099.56
2022-10-05T16:51:42.397Z,100075.84
2022-10-05T16:54:19.419Z,100106.63
2022-10-05T16:56:52.654Z,100100.47
2022-10-05T17:00:08.117Z,100088.16
2022-10-05T17:03:03.529Z,100090.78
2022-10-05T17:06:04.404Z,100089.03
2022-10-05T17:08:49.750Z,100083.75
2022-10-05T17:11:35.135Z,100086.41
2022-10-05T17:14:16.053Z,100086.41
2022-10-05T17:16:56.661Z,100074.97
2022-10-05T17:19:53.227Z,100070.56
2022-10-05T17:22:28.888Z,100057.41
2022-10-05T17:25:05.590Z,100070.59
2022-10-05T17:27:36.342Z,100060.91
2022-10-05T17:30:36.529Z,100060.88
2022-10-05T17:33:20.944Z,100064.41
2022-10-05T17:36:13.397Z,100069.72
2022-10-05T17:38:53.238Z,100074.13
2022-10-05T17:41:23.639Z,100058.28
2022-10-05T17:44:28.103Z,100066.19
2022-10-05T17:47:00.345Z,100054.75
2022-10-05T17:49:47.946Z,100054.75
2022-10-05T17:52:43.972Z,100060.91
2022-10-05T17:55:36.125Z,100049.47
2022-10-05T17:58:40.970Z,100060.03
2022-10-05T18:01:19.258Z,100039.81
2022-10-05T18:03:51.478Z,100020.50
2022-10-05T18:06:38.320Z,100055.63
2022-10-05T18:09:41.338Z,100030.16
2022-10-05T18:12:29.444Z,100047.72
2022-10-05T18:15:01.443Z,100049.47
2022-10-05T18:17:40.063Z,100047.72
2022-10-05T18:20:30.136Z,100051.22
2022-10-05T18:23:30.356Z,100038.91
2022-10-05T18:26:18.103Z,100055.63
2022-10-05T18:28:57.501Z,100045.94
2022-10-05T18:31:34.265Z,100038.91
2022-10-05T18:34:15.798Z,100051.19
2022-10-05T18:36:59.811Z,100036.25
2022-10-05T18:39:48.589Z,100059.06
2022-10-05T18:42:27.272Z,100063.44
2022-10-05T18:44:59.433Z,100043.19
2022-10-05T18:47:36.206Z,100044.91
2022-10-05T18:50:22.294Z,100044.88
2022-10-05T18:53:03.033Z,100028.19
2022-10-05T18:55:35.102Z,100029.03
2022-10-05T18:58:27.354Z,100044.88
2022-10-05T19:01:36.371Z,100038.69
2022-10-05T19:04:16.811Z,100029.00
2022-10-05T19:06:56.141Z,99995.59
2022-10-05T19:09:43.645Z,100011.41
2022-10-05T19:12:20.983Z,100007.03
2022-10-05T19:14:59.484Z,100011.50
2022-10-05T19:17:44.713Z,99962.31
2022-10-05T19:20:22.064Z,99994.78
2022-10-05T19:23:09.620Z,100003.56
2022-10-05T19:25:40.481Z,100008.88
2022-10-05T19:28:20.746Z,100000.94
2022-10-05T19:31:02.572Z,100000.00
2022-10-05T19:33:39.037Z,100000.06
2022-10-05T19:36:29.018Z,100016.72
2022-10-05T19:39:04.817Z,100003.50
2022-10-05T19:41:47.045Z,99992.91
2022-10-05T19:44:28.406Z,100016.69
2022-10-05T19:47:02.673Z,99984.19
2022-10-05T19:49:50.146Z,99994.75
2022-10-05T19:52:23.956Z,100008.75
2022-10-05T19:55:04.815Z,100005.22
2022-10-05T19:57:33.104Z,99926.19
2022-10-05T20:00:01.011Z,99991.16
2022-10-05T20:02:32.703Z,99985.84
2022-10-05T20:05:08.111Z,99960.34
2022-10-05T20:07:36.542Z,99984.97
2022-10-05T20:10:29.687Z,99985.84
2022-10-05T20:12:59.552Z,99992.00
2022-10-05T20:15:46.617Z,99979.69
2022-10-05T20:18:58.837Z,99978.78
2022-10-05T20:21:38.245Z,99984.06
2022-10-05T20:24:11.089Z,99962.06
2022-10-05T20:27:12.627Z,99965.56
2022-10-05T20:29:45.309Z,99965.59
2022-10-05T20:32:15.179Z,99981.41
2022-10-05T20:34:45.816Z,99960.31
2022-10-05T20:37:15.469Z,99971.75
2022-10-05T20:39:43.629Z,99860.28
2022-10-05T20:42:11.986Z,99964.69
2022-10-05T20:44:40.244Z,99952.38
2022-10-05T20:47:10.378Z,99931.28
2022-10-05T20:49:41.248Z,99950.63
2022-10-05T20:52:12.210Z,99946.22
2022-10-05T20:54:40.497Z,99948.00
2022-10-05T20:57:10.166Z,99952.41
2022-10-05T20:59:38.686Z,99943.63
2022-10-05T21:02:07.414Z,99939.19
2022-10-05T21:04:42.871Z,99936.53
2022-10-05T21:07:12.519Z,99933.91
2022-10-05T21:09:42.320Z,99913.72
2022-10-05T21:12:10.563Z,99936.53
2022-10-05T21:14:38.773Z,99930.38
2022-10-05T21:17:07.322Z,99919.81
2022-10-05T21:19:38.535Z,99931.25
2022-10-05T21:22:08.513Z,99933.03
2022-10-05T21:24:39.212Z,99939.19
2022-10-05T21:27:08.034Z,99847.03
2022-10-05T21:29:37.222Z,99927.75
2022-10-05T21:32:08.780Z,99865.44
2022-10-05T21:34:36.875Z,99904.94
2022-10-05T21:37:05.208Z,99931.28
2022-10-05T21:39:34.732Z,99922.47
2022-10-05T21:42:04.516Z,99924.22
2022-10-05T21:44:32.533Z,99853.16
2022-10-05T21:47:00.452Z,99906.63
2022-10-05T21:49:29.201Z,99906.63
2022-10-05T21:51:57.249Z,99883.78
2022-10-05T21:54:25.590Z,99888.13
2022-10-05T21:56:56.670Z,99887.25
2022-10-05T21:59:30.629Z,99875.84
2022-10-05T22:01:58.915Z,99877.63
2022-10-05T22:04:27.020Z,99888.19
2022-10-05T22:06:56.555Z,99880.25
2022-10-05T22:09:24.504Z,99870.56
2022-10-05T22:11:52.446Z,99884.66
2022-10-05T22:14:20.547Z,99870.56
2022-10-05T22:16:49.957Z,99874.97
2022-10-05T22:19:21.115Z,99862.66
2022-10-05T22:21:49.282Z,99864.41
2022-10-05T22:24:17.142Z,99859.13
2022-10-05T22:26:48.322Z,99858.25
2022-10-05T22:29:18.231Z,99857.34
2022-10-05T22:31:48.763Z,99852.97
2022-10-05T22:34:19.118Z,99844.16
2022-10-05T22:36:47.716Z,99838.91
2022-10-05T22:39:16.235Z,99837.13
2022-10-05T22:41:44.740Z,99820.47
2022-10-05T22:44:12.691Z,99816.09
2022-10-05T22:46:40.631Z,99796.81
2022-10-05T22:49:08.602Z,99717.00
2022-10-05T22:51:38.041Z,99789.69
2022-10-05T22:54:06.292Z,99801.94
2022-10-05T22:56:34.677Z,99789.69
2022-10-05T22:59:02.611Z,99804.59
2022-10-05T23:01:30.485Z,99802.81
2022-10-05T23:03:58.561Z,99812.50
2022-10-05T23:06:26.727Z,99800.22
2022-10-05T23:08:56.450Z,99801.06
2022-10-05T23:11:26.586Z,99808.09
2022-10-05T23:13:57.026Z,99808.97
2022-10-05T23:16:27.650Z,99808.97
2022-10-05T23:18:56.395Z,99795.78
2022-10-05T23:21:26.325Z,99786.13
2022-10-05T23:23:55.672Z,99739.66
2022-10-05T23:26:25.179Z,99723.94
2022-10-05T23:28:53.443Z,99792.28
2022-10-05T23:31:23.129Z,99793.16
2022-10-05T23:33:51.358Z,99797.56
2022-10-05T23:36:21.250Z,99787.88
2022-10-05T23:38:49.358Z,99794.91
2022-10-05T23:41:19.716Z,99787.88
2022-10-05T23:43:47.854Z,99774.66
2022-10-05T23:46:17.679Z,99774.66
2022-10-05T23:48:45.755Z,99770.25
2022-10-05T23:51:15.638Z,99765.84
2022-10-05T23:53:44.585Z,99768.50
2022-10-05T23:56:13.428Z,99756.19
2022-10-05T23:58:42.860Z,99756.16
